Dragoon, AZ (85609)

10:45 PM MST on February 09, 2016 (GMT -0700)
Dragoon | | Change Station
CLOSE
Current Station
Personal Weather Station
Location: Dragoon, AZ
Elevation: 4731 ft
Nearby Weather Stations

Elev 4731 ft 32.03 °N, 110.09 °W | Updated 53 seconds ago

Clear
Clear
51.4 °F
Feels Like 51.4 °F
N
2.7
Wind Variable Wind from North
Gusts 3.4 mph

Today
High -- | Low -- °F
--% Chance of Precip.
Yesterday
High -- | Low -- °F
Precip. -- in
Pressure 30.20 in
Visibility 10.0 miles
Clouds Clear
Dew Point 15 °F
Humidity 23%
Rainfall 0.00 in
Snow Depth Not available.
7:08 AM 6:01 PM
Waxing Crescent, 4% visible
METAR KFHU 100458Z COR 19003KT 10SM CLR 08/M06 A3030 RMK SLP226 COR 0501
Pressure 30.20 in
Visibility 10.0 miles
Clouds Clear
Dew Point 15 °F
Humidity 23%
Rainfall 0.00 in
Snow Depth Not available.
7:08 AM 6:01 PM
Waxing Crescent, 4% visible
METAR KFHU 100458Z COR 19003KT 10SM CLR 08/M06 A3030 RMK SLP226 COR 0501

10-Day Weather Forecast

Almanac

Astronomy

Feb. 09, 2016 Rise Set
Actual Time
Civil Twilight
Nautical Twilight
Astronomical Twilight
Moon
Length of Visible Light
Length of Day
Tomorrow will be .
, % of the Moon is Illuminated

Today's Extremes

State Highs State Lows

Community

WunderPhotos

Upload Photos

1,891,823 photos uploaded!

WunderBlog® & News

Nearby

Air Quality

  Air Quality AQ Index Pollutant
Not available.

Snow Depth

Station Depth Elevation

Earthquake Activity

City Distance Mag. Time & Date
Minimum magnitude displayed is 2.5.

Coastal Water Temperatures

Place Temperature

Stations

Nearby Weather Stations

Station Location Temp. Windchill Dew Point Humidity Wind Precip. Elev Updated Type
                   

Watches & Warnings

There are currently no watches in effect.